Time;durP1;ratioP1;P1;durP2;ratioP2;P2;SDS_P1;SDS_P2;PMS_P1;PMS_P2;Temp;Humidity;BMP_temperature;BMP_pressure;BME280_temperature;BME280_humidity;BME280_pressure;Samples;Min_cycle;Max_cycle;Signal;HPM_P1;HPM_P2
2023/06/18 00:00:40;;;;;;;26.17;18.95;;;15.50;99.90;;;;;;5070819;28;20059;-75
2023/06/18 00:03:06;;;;;;;25.27;19.08;;;15.50;99.90;;;;;;5053372;28;20150;-74
2023/06/18 00:05:32;;;;;;;27.23;19.63;;;15.50;99.90;;;;;;5070282;28;20071;-75
2023/06/18 00:07:58;;;;;;;27.80;20.58;;;15.40;99.90;;;;;;5072918;28;20166;-74
2023/06/18 00:10:24;;;;;;;28.25;19.90;;;15.40;99.90;;;;;;5075352;28;20040;-75
2023/06/18 00:12:50;;;;;;;29.92;20.63;;;15.40;99.90;;;;;;5076223;28;20032;-75
2023/06/18 00:15:16;;;;;;;27.45;20.25;;;15.40;99.90;;;;;;5056310;28;20210;-75
2023/06/18 00:17:41;;;;;;;27.35;20.25;;;15.40;99.90;;;;;;5054755;28;20147;-75
2023/06/18 00:20:08;;;;;;;27.52;20.10;;;15.30;99.90;;;;;;5076203;28;20289;-75
2023/06/18 00:22:38;;;;;;;27.13;21.02;;;15.30;99.90;;;;;;5076892;28;20040;-75
2023/06/18 00:25:07;;;;;;;27.90;19.90;;;15.30;99.90;;;;;;5076587;28;20040;-75
2023/06/18 00:27:33;;;;;;;27.02;20.40;;;15.30;99.90;;;;;;5069387;28;20044;-75
2023/06/18 00:29:59;;;;;;;25.80;19.77;;;15.30;99.90;;;;;;5069555;28;20045;-75
2023/06/18 00:32:25;;;;;;;23.90;18.63;;;15.30;99.90;;;;;;5073732;28;20067;-75
2023/06/18 00:34:53;;;;;;;26.00;18.88;;;15.30;99.90;;;;;;5058449;28;20046;-75
2023/06/18 00:37:20;;;;;;;27.20;19.33;;;15.30;99.90;;;;;;5074505;28;20059;-75
2023/06/18 00:39:46;;;;;;;26.95;19.00;;;15.40;99.90;;;;;;5071499;28;20052;-75
2023/06/18 00:42:12;;;;;;;26.40;19.88;;;15.40;99.90;;;;;;5073846;28;20045;-75
2023/06/18 00:44:41;;;;;;;25.98;19.55;;;15.30;99.90;;;;;;5073420;28;20212;-75
2023/06/18 00:47:12;;;;;;;28.05;19.10;;;15.30;99.90;;;;;;5073366;28;20064;-75
2023/06/18 00:49:40;;;;;;;25.75;19.58;;;15.30;99.90;;;;;;5067791;28;20036;-75
2023/06/18 00:52:09;;;;;;;25.50;19.67;;;15.30;99.90;;;;;;5069279;28;20289;-75
2023/06/18 00:54:36;;;;;;;28.48;21.33;;;15.20;99.90;;;;;;5058123;28;20122;-75
2023/06/18 00:57:03;;;;;;;26.83;19.77;;;15.20;99.90;;;;;;5072972;28;20282;-75
2023/06/18 00:59:29;;;;;;;27.20;20.60;;;15.10;99.90;;;;;;5073150;28;20075;-75
2023/06/18 01:01:56;;;;;;;26.40;20.02;;;15.10;99.90;;;;;;5074872;28;20052;-75
2023/06/18 01:04:26;;;;;;;27.00;20.13;;;15.10;99.90;;;;;;5061248;28;20095;-75
2023/06/18 01:06:57;;;;;;;26.77;20.13;;;15.00;99.90;;;;;;5069994;28;20120;-75
2023/06/18 01:09:25;;;;;;;28.60;19.58;;;15.00;99.90;;;;;;5056889;28;20032;-75
2023/06/18 01:11:52;;;;;;;26.10;18.48;;;15.00;99.90;;;;;;5070616;28;20101;-75
2023/06/18 01:14:22;;;;;;;26.33;20.10;;;15.00;99.90;;;;;;5074660;28;20048;-75
2023/06/18 01:16:56;;;;;;;25.95;19.00;;;15.00;99.90;;;;;;5077667;28;20343;-75
2023/06/18 01:19:43;;;;;;;24.15;19.10;;;15.00;99.90;;;;;;5057866;28;20095;-75
2023/06/18 01:22:15;;;;;;;25.35;18.80;;;15.00;99.90;;;;;;5079695;28;20044;-75
2023/06/18 01:24:49;;;;;;;25.90;19.45;;;15.00;99.90;;;;;;5062387;28;20039;-75
2023/06/18 01:27:17;;;;;;;24.77;17.75;;;15.00;99.90;;;;;;5077460;28;20105;-75
2023/06/18 01:29:43;;;;;;;22.67;16.52;;;14.90;99.90;;;;;;5075005;28;20062;-75
2023/06/18 01:32:09;;;;;;;23.27;17.10;;;15.00;99.90;;;;;;5075141;28;20036;-75
2023/06/18 01:34:38;;;;;;;23.63;17.42;;;14.90;99.90;;;;;;5073585;28;20047;-74
2023/06/18 01:37:25;;;;;;;22.15;16.50;;;15.00;99.90;;;;;;5077801;28;20142;-75
2023/06/18 01:40:15;;;;;;;24.50;17.17;;;15.00;99.90;;;;;;5073904;28;20056;-75
2023/06/18 01:42:52;;;;;;;21.88;16.15;;;14.90;99.90;;;;;;5078640;28;20103;-75
2023/06/18 01:45:33;;;;;;;22.83;17.20;;;14.90;99.90;;;;;;5076771;28;20219;-74
2023/06/18 01:48:04;;;;;;;23.33;16.30;;;14.90;99.90;;;;;;5078233;28;20122;-75
2023/06/18 01:50:32;;;;;;;20.63;15.68;;;14.80;99.90;;;;;;5076624;28;20095;-75
2023/06/18 01:53:01;;;;;;;20.50;14.63;;;14.80;99.90;;;;;;5072489;28;20065;-75
2023/06/18 01:55:28;;;;;;;20.02;15.13;;;14.70;99.90;;;;;;5075967;28;20070;-75
2023/06/18 01:57:57;;;;;;;19.33;14.43;;;14.70;99.90;;;;;;5077955;28;20064;-75
2023/06/18 02:00:23;;;;;;;20.95;14.95;;;14.70;99.90;;;;;;5059049;28;20064;-75
2023/06/18 02:02:50;;;;;;;21.65;14.93;;;14.60;99.90;;;;;;5073284;28;20033;-75
2023/06/18 02:05:15;;;;;;;20.27;13.95;;;14.60;99.90;;;;;;5075106;28;20044;-74
2023/06/18 02:07:41;;;;;;;19.08;14.13;;;14.60;99.90;;;;;;5061362;28;20047;-75
2023/06/18 02:10:07;;;;;;;19.23;13.48;;;14.60;99.90;;;;;;5059857;28;20032;-75
2023/06/18 02:12:33;;;;;;;15.68;11.15;;;14.50;99.90;;;;;;5075434;28;20056;-75
2023/06/18 02:14:59;;;;;;;16.73;11.85;;;12.70;99.90;;;;;;5071568;28;20059;-74
2023/06/18 02:17:26;;;;;;;19.95;14.63;;;14.40;99.90;;;;;;5077383;28;20060;-74
2023/06/18 02:19:52;;;;;;;40.78;16.45;;;14.40;99.90;;;;;;5074512;28;20065;-74
2023/06/18 02:22:17;;;;;;;43.55;16.67;;;14.30;99.90;;;;;;5060898;28;20032;-75
2023/06/18 02:24:44;;;;;;;54.90;16.88;;;14.20;99.90;;;;;;5069451;28;20052;-75
2023/06/18 02:27:10;;;;;;;58.13;17.38;;;14.20;99.90;;;;;;5066903;28;20107;-75
2023/06/18 02:29:36;;;;;;;64.53;17.77;;;14.10;99.90;;;;;;5073349;28;20036;-74
2023/06/18 02:32:02;;;;;;;45.95;17.02;;;14.00;99.90;;;;;;5075338;28;20072;-74
2023/06/18 02:34:28;;;;;;;36.08;17.77;;;13.80;99.90;;;;;;5066687;28;20143;-74
2023/06/18 02:36:54;;;;;;;45.72;18.92;;;13.90;99.90;;;;;;5077082;28;20044;-74
2023/06/18 02:39:21;;;;;;;79.72;19.38;;;13.90;99.90;;;;;;5075088;28;20076;-74
2023/06/18 02:41:47;;;;;;;35.88;18.67;;;13.90;99.90;;;;;;5057059;28;20175;-75
2023/06/18 02:44:12;;;;;;;39.38;18.23;;;13.90;99.90;;;;;;5069515;28;20052;-75
2023/06/18 02:46:38;;;;;;;48.55;17.63;;;13.90;99.90;;;;;;5077237;28;20040;-75
2023/06/18 02:49:04;;;;;;;44.50;19.08;;;13.90;99.90;;;;;;5074244;28;20271;-75
2023/06/18 02:51:30;;;;;;;47.42;18.20;;;13.80;99.90;;;;;;5077552;28;20197;-75
2023/06/18 02:53:57;;;;;;;33.90;17.95;;;13.80;99.90;;;;;;5057142;28;20099;-75
2023/06/18 02:56:22;;;;;;;35.05;17.30;;;13.80;99.90;;;;;;5048403;28;20049;-74
2023/06/18 02:58:55;;;;;;;43.08;17.20;;;13.80;99.90;;;;;;5056796;28;20043;-74
2023/06/18 03:01:25;;;;;;;33.42;16.50;;;13.80;99.90;;;;;;5076101;28;20266;-75
2023/06/18 03:03:53;;;;;;;37.80;16.52;;;13.80;99.90;;;;;;5074079;28;20081;-75
2023/06/18 03:06:19;;;;;;;24.67;15.98;;;13.80;99.90;;;;;;5072595;28;20044;-75
2023/06/18 03:08:46;;;;;;;44.67;16.73;;;13.80;99.90;;;;;;5074541;28;20263;-75
2023/06/18 03:11:12;;;;;;;33.47;17.45;;;13.80;99.90;;;;;;5077223;28;20044;-75
2023/06/18 03:13:37;;;;;;;21.88;17.25;;;13.90;99.90;;;;;;5074297;28;20040;-75
2023/06/18 03:16:03;;;;;;;27.00;17.13;;;13.90;99.90;;;;;;5076274;28;20064;-75
2023/06/18 03:18:29;;;;;;;40.15;17.67;;;13.90;99.90;;;;;;5071534;28;20028;-75
2023/06/18 03:20:55;;;;;;;42.35;17.20;;;14.00;99.90;;;;;;5074713;28;20060;-75
2023/06/18 03:23:21;;;;;;;38.80;18.05;;;14.00;99.90;;;;;;5076684;28;20024;-75
2023/06/18 03:25:46;;;;;;;44.10;17.83;;;13.90;99.90;;;;;;5075055;28;20044;-75
2023/06/18 03:28:12;;;;;;;24.50;17.15;;;14.00;99.90;;;;;;5074341;28;20315;-75
2023/06/18 03:30:38;;;;;;;51.45;18.17;;;14.00;99.90;;;;;;5076326;28;20088;-75
2023/06/18 03:33:04;;;;;;;41.67;16.90;;;14.00;99.90;;;;;;5071843;28;20194;-75
2023/06/18 03:35:31;;;;;;;64.40;18.55;;;14.00;99.90;;;;;;5072883;28;20274;-75
2023/06/18 03:37:57;;;;;;;38.83;17.98;;;14.00;99.90;;;;;;5074046;28;20115;-75
2023/06/18 03:40:23;;;;;;;28.90;18.17;;;14.00;99.90;;;;;;5070316;28;20040;-75
2023/06/18 03:42:48;;;;;;;42.40;18.20;;;14.10;99.90;;;;;;5076210;28;20099;-75
2023/06/18 03:45:14;;;;;;;42.05;18.23;;;14.20;99.90;;;;;;5074647;28;20186;-75
2023/06/18 03:47:40;;;;;;;46.58;18.15;;;14.20;99.90;;;;;;5076593;28;20060;-75
2023/06/18 03:50:06;;;;;;;55.90;18.95;;;14.10;99.90;;;;;;5070739;28;20115;-75
2023/06/18 03:52:32;;;;;;;24.98;16.90;;;14.20;99.90;;;;;;5075395;28;20075;-75
2023/06/18 03:54:58;;;;;;;23.48;15.50;;;14.20;99.90;;;;;;5073114;28;20036;-75
2023/06/18 03:57:24;;;;;;;27.42;15.85;;;14.20;99.90;;;;;;5056589;28;20181;-75
2023/06/18 03:59:51;;;;;;;76.13;17.58;;;14.30;99.90;;;;;;5069376;28;20098;-75
2023/06/18 04:02:17;;;;;;;37.75;15.63;;;14.30;99.90;;;;;;5071134;28;20044;-75
2023/06/18 04:04:44;;;;;;;34.15;14.52;;;14.40;99.90;;;;;;5070637;28;20033;-75
2023/06/18 04:07:10;;;;;;;52.20;15.32;;;14.30;99.90;;;;;;5059405;28;20041;-75
2023/06/18 04:09:36;;;;;;;23.35;14.43;;;14.30;99.90;;;;;;5056044;28;20066;-75
2023/06/18 04:12:03;;;;;;;67.70;16.98;;;14.30;99.90;;;;;;5071439;28;20218;-75
2023/06/18 04:14:28;;;;;;;58.20;14.88;;;14.30;99.90;;;;;;5053690;28;20056;-75
2023/06/18 04:16:55;;;;;;;30.30;14.10;;;14.30;99.90;;;;;;5072793;28;20151;-75
2023/06/18 04:19:21;;;;;;;35.38;15.35;;;14.30;99.90;;;;;;5055738;28;20041;-75
2023/06/18 04:21:48;;;;;;;25.58;14.80;;;14.30;99.90;;;;;;5073180;28;20036;-75
2023/06/18 04:24:14;;;;;;;21.08;14.23;;;14.30;99.90;;;;;;5073639;28;20057;-75
2023/06/18 04:26:39;;;;;;;27.98;15.65;;;14.40;99.90;;;;;;5067544;28;20056;-75
2023/06/18 04:29:05;;;;;;;52.60;15.55;;;14.40;99.90;;;;;;5051067;28;20151;-75
2023/06/18 04:31:31;;;;;;;35.42;14.43;;;14.40;99.90;;;;;;5069312;28;20278;-75
2023/06/18 04:33:57;;;;;;;27.02;13.98;;;14.30;99.90;;;;;;5046618;28;20028;-75
2023/06/18 04:36:22;;;;;;;30.50;14.27;;;14.40;99.90;;;;;;5077495;28;20698;-75
2023/06/18 04:38:48;;;;;;;50.47;14.63;;;14.40;99.90;;;;;;5076275;28;21072;-75
2023/06/18 04:41:14;;;;;;;16.35;11.75;;;14.40;99.90;;;;;;5080636;28;20033;-75
2023/06/18 04:43:40;;;;;;;27.90;14.13;;;14.40;99.90;;;;;;5071913;28;20099;-75
2023/06/18 04:46:06;;;;;;;35.53;15.07;;;14.40;99.90;;;;;;5058205;28;20044;-75
2023/06/18 04:48:34;;;;;;;17.92;13.30;;;14.50;99.90;;;;;;5077097;28;20202;-75
2023/06/18 04:50:59;;;;;;;29.88;13.32;;;14.50;99.90;;;;;;5058517;28;20170;-75
2023/06/18 04:53:25;;;;;;;28.23;11.65;;;14.50;99.90;;;;;;5074045;28;20211;-75
2023/06/18 04:55:51;;;;;;;23.33;12.00;;;15.20;99.90;;;;;;5078251;28;20119;-75
2023/06/18 04:58:16;;;;;;;25.23;11.80;;;14.60;99.90;;;;;;5078616;28;20108;-75
2023/06/18 05:00:42;;;;;;;18.13;11.50;;;14.60;99.90;;;;;;5073871;28;20059;-75
2023/06/18 05:03:08;;;;;;;20.17;12.13;;;14.60;99.90;;;;;;5054529;28;20124;-75
2023/06/18 05:05:33;;;;;;;19.33;12.73;;;16.10;99.90;;;;;;5078906;28;20278;-74
2023/06/18 05:07:59;;;;;;;20.77;12.15;;;14.70;99.90;;;;;;5078642;28;20041;-75
2023/06/18 05:10:25;;;;;;;18.52;12.32;;;14.70;99.90;;;;;;5078856;28;20044;-75
2023/06/18 05:12:51;;;;;;;16.15;11.00;;;14.80;99.90;;;;;;5074218;28;20032;-74
2023/06/18 05:15:17;;;;;;;15.98;11.88;;;14.80;99.90;;;;;;5078001;28;20055;-75
2023/06/18 05:17:42;;;;;;;19.08;11.82;;;14.80;99.90;;;;;;5077333;28;20054;-75
2023/06/18 05:20:08;;;;;;;14.95;10.80;;;14.90;99.90;;;;;;5076252;28;20036;-75
2023/06/18 05:22:34;;;;;;;15.32;11.32;;;14.90;99.90;;;;;;5072999;28;20258;-74
2023/06/18 05:25:01;;;;;;;14.07;10.35;;;15.00;99.90;;;;;;5078188;28;20099;-75
2023/06/18 05:27:28;;;;;;;16.05;11.32;;;15.00;99.90;;;;;;5076726;28;20146;-75
2023/06/18 05:29:54;;;;;;;16.02;11.77;;;15.10;99.90;;;;;;5073817;28;20040;-75
2023/06/18 05:32:21;;;;;;;16.00;11.55;;;15.10;99.90;;;;;;5054123;28;20048;-75
2023/06/18 05:34:47;;;;;;;17.13;13.20;;;15.20;99.90;;;;;;5075521;28;20061;-75
2023/06/18 05:37:12;;;;;;;16.85;12.40;;;15.20;99.90;;;;;;5076776;28;20044;-75
2023/06/18 05:39:38;;;;;;;16.73;12.40;;;15.30;99.90;;;;;;5080434;28;20059;-75
2023/06/18 05:42:05;;;;;;;16.55;12.45;;;15.80;99.90;;;;;;5059229;28;20107;-74
2023/06/18 05:44:30;;;;;;;17.08;12.68;;;15.40;99.90;;;;;;5079560;28;20051;-75
2023/06/18 05:46:56;;;;;;;17.10;12.50;;;15.50;99.90;;;;;;5081071;28;20096;-75
2023/06/18 05:49:22;;;;;;;22.25;14.48;;;15.60;99.90;;;;;;5083032;28;20095;-75
2023/06/18 05:51:47;;;;;;;18.70;14.70;;;15.70;99.90;;;;;;5082816;28;20060;-75
2023/06/18 05:54:13;;;;;;;16.73;13.05;;;15.80;99.90;;;;;;5072038;28;20028;-75
2023/06/18 05:56:39;;;;;;;17.58;13.45;;;15.90;99.90;;;;;;5064975;28;20041;-75
2023/06/18 05:59:05;;;;;;;18.05;13.18;;;16.00;99.90;;;;;;5062887;28;20041;-75
2023/06/18 06:01:33;;;;;;;16.50;12.23;;;16.20;99.90;;;;;;5062709;28;20088;-75
2023/06/18 06:04:00;;;;;;;17.80;13.63;;;16.30;99.90;;;;;;5064660;28;20057;-75
2023/06/18 06:06:26;;;;;;;17.35;12.90;;;16.40;99.90;;;;;;5077774;28;20058;-74
2023/06/18 06:08:52;;;;;;;17.70;13.65;;;16.40;99.90;;;;;;5082784;28;20040;-75
2023/06/18 06:11:18;;;;;;;17.55;12.73;;;16.50;99.90;;;;;;5078958;28;20067;-74
2023/06/18 06:13:45;;;;;;;17.65;12.93;;;16.50;99.90;;;;;;5069278;28;20041;-74
2023/06/18 06:16:11;;;;;;;17.90;13.82;;;16.60;99.90;;;;;;5078508;28;20044;-74
2023/06/18 06:18:37;;;;;;;17.83;13.13;;;16.60;99.90;;;;;;5082915;28;20231;-74
2023/06/18 06:21:02;;;;;;;16.58;12.98;;;16.70;99.90;;;;;;5078593;28;20044;-73
2023/06/18 06:23:30;;;;;;;17.73;13.65;;;16.80;99.90;;;;;;5078950;28;20286;-75
2023/06/18 06:25:56;;;;;;;18.58;14.13;;;16.90;99.90;;;;;;5072621;28;20576;-75
2023/06/18 06:28:22;;;;;;;17.70;14.25;;;16.90;99.90;;;;;;5070550;28;20305;-75
2023/06/18 06:30:48;;;;;;;18.42;14.60;;;17.00;99.90;;;;;;5073661;28;20182;-75
2023/06/18 06:33:14;;;;;;;19.38;14.23;;;17.00;99.90;;;;;;5070862;28;20071;-75
2023/06/18 06:35:40;;;;;;;18.30;14.73;;;17.00;99.90;;;;;;5075125;28;20039;-75
2023/06/18 06:38:06;;;;;;;16.02;12.38;;;17.10;99.90;;;;;;5076897;28;20056;-75
2023/06/18 06:40:31;;;;;;;17.15;13.50;;;17.20;99.90;;;;;;5069632;28;20368;-75
2023/06/18 06:42:58;;;;;;;18.80;14.20;;;17.30;99.90;;;;;;5075467;28;20041;-75
2023/06/18 06:45:24;;;;;;;20.20;15.05;;;17.40;99.90;;;;;;5070859;28;20283;-75
2023/06/18 06:47:50;;;;;;;20.17;15.88;;;17.60;99.90;;;;;;5080568;28;20044;-75
2023/06/18 06:50:16;;;;;;;19.98;15.85;;;17.70;99.90;;;;;;5057612;28;20032;-75
2023/06/18 06:52:41;;;;;;;20.88;15.82;;;17.80;99.90;;;;;;5078248;28;20271;-74
2023/06/18 06:55:08;;;;;;;18.85;14.88;;;17.80;99.90;;;;;;5067741;28;20041;-75
2023/06/18 06:57:34;;;;;;;21.20;15.43;;;18.00;99.90;;;;;;5081020;28;20036;-75
2023/06/18 06:59:59;;;;;;;20.33;15.27;;;18.10;99.90;;;;;;5063816;28;20082;-75
2023/06/18 07:02:25;;;;;;;19.98;15.02;;;18.20;99.90;;;;;;5074208;28;20043;-75
2023/06/18 07:04:51;;;;;;;20.15;15.25;;;18.30;99.90;;;;;;5053509;28;20036;-75
2023/06/18 07:07:17;;;;;;;20.85;14.90;;;18.40;99.90;;;;;;5054738;28;20115;-74
2023/06/18 07:09:43;;;;;;;19.55;14.70;;;18.60;99.90;;;;;;5076999;28;20024;-74
2023/06/18 07:12:09;;;;;;;18.10;13.82;;;18.70;99.90;;;;;;5074370;28;20183;-74
2023/06/18 07:14:35;;;;;;;19.67;15.05;;;18.90;99.90;;;;;;5078424;28;20081;-74
2023/06/18 07:17:10;;;;;;;19.73;14.30;;;19.00;99.90;;;;;;5072620;27;20406;-75
2023/06/18 07:19:35;;;;;;;19.42;14.85;;;19.10;99.90;;;;;;5070510;28;20033;-75
2023/06/18 07:22:01;;;;;;;18.23;14.02;;;19.20;99.90;;;;;;5044474;27;20033;-75
2023/06/18 07:24:27;;;;;;;18.73;13.60;;;19.30;99.90;;;;;;5156897;27;20566;-75
2023/06/18 07:26:52;;;;;;;18.60;14.23;;;19.30;99.90;;;;;;5050093;27;20036;-75
2023/06/18 07:29:18;;;;;;;20.88;14.25;;;19.40;99.90;;;;;;5156725;27;20040;-74
2023/06/18 07:31:44;;;;;;;19.75;13.98;;;19.50;99.90;;;;;;5040038;27;20084;-75
2023/06/18 07:34:09;;;;;;;18.55;13.90;;;19.50;99.90;;;;;;5176719;27;20040;-75
2023/06/18 07:36:35;;;;;;;18.23;13.45;;;19.60;99.90;;;;;;5075412;28;20033;-75
2023/06/18 07:39:01;;;;;;;21.92;14.52;;;19.60;99.90;;;;;;5052304;27;20025;-74
2023/06/18 07:41:27;;;;;;;16.48;11.85;;;19.80;99.90;;;;;;5062550;28;20032;-75
2023/06/18 07:43:52;;;;;;;18.92;13.48;;;19.90;99.90;;;;;;5044360;27;20033;-75
2023/06/18 07:46:19;;;;;;;19.25;14.13;;;20.10;99.90;;;;;;5063767;27;20104;-75
2023/06/18 07:48:45;;;;;;;18.35;13.48;;;20.20;99.90;;;;;;5079078;27;20036;-75
2023/06/18 07:51:11;;;;;;;18.60;14.23;;;20.40;99.90;;;;;;5039011;27;20088;-75
2023/06/18 07:53:37;;;;;;;17.30;12.88;;;20.40;99.90;;;;;;5148120;27;20268;-75
2023/06/18 07:56:02;;;;;;;19.13;13.88;;;20.50;99.90;;;;;;5042308;27;20229;-75
2023/06/18 07:58:28;;;;;;;20.08;14.23;;;20.50;99.90;;;;;;5042026;27;20033;-75
2023/06/18 08:00:54;;;;;;;19.17;14.35;;;20.70;99.90;;;;;;5034154;28;20171;-75
2023/06/18 08:03:20;;;;;;;16.95;12.93;;;20.70;99.90;;;;;;5045377;27;20081;-76
2023/06/18 08:05:45;;;;;;;19.17;13.88;;;20.80;99.90;;;;;;5136460;27;20033;-76
2023/06/18 08:08:11;;;;;;;18.42;13.68;;;20.90;99.90;;;;;;5031110;28;20081;-76
2023/06/18 08:10:37;;;;;;;17.60;12.55;;;21.00;99.90;;;;;;5031550;27;21021;-75
2023/06/18 08:13:03;;;;;;;18.60;11.55;;;21.10;99.90;;;;;;5032091;27;20021;-76
2023/06/18 08:15:28;;;;;;;20.23;13.13;;;21.20;99.90;;;;;;5037281;28;20037;-76
2023/06/18 08:17:54;;;;;;;17.75;13.40;;;21.20;99.90;;;;;;5038320;28;20396;-76
2023/06/18 08:20:20;;;;;;;16.85;12.65;;;21.30;99.90;;;;;;5036916;28;20073;-76
2023/06/18 08:22:46;;;;;;;16.85;12.32;;;21.40;99.90;;;;;;5037155;27;20062;-76
2023/06/18 08:25:11;;;;;;;16.00;11.75;;;21.70;99.90;;;;;;5114356;27;20015;-76
2023/06/18 08:27:37;;;;;;;16.83;12.07;;;21.70;99.90;;;;;;5049147;27;20195;-76
2023/06/18 08:30:04;;;;;;;15.75;10.73;;;21.90;99.90;;;;;;5046783;28;20033;-76
2023/06/18 08:32:30;;;;;;;16.70;12.13;;;22.00;99.90;;;;;;5041044;28;20183;-76
2023/06/18 08:34:56;;;;;;;16.40;11.95;;;22.20;99.90;;;;;;5007373;28;20099;-76
2023/06/18 08:37:22;;;;;;;17.95;11.77;;;22.30;99.90;;;;;;5023625;28;20312;-76
2023/06/18 08:39:47;;;;;;;16.58;11.07;;;22.40;99.90;;;;;;5128604;27;20170;-76
2023/06/18 08:42:20;;;;;;;14.40;9.70;;;22.50;99.90;;;;;;5024661;28;20053;-76
2023/06/18 08:44:46;;;;;;;16.30;9.85;;;22.60;99.90;;;;;;5025268;28;20336;-76
2023/06/18 08:47:12;;;;;;;14.77;9.43;;;22.90;99.90;;;;;;5040838;28;20025;-76
2023/06/18 08:49:41;;;;;;;15.23;10.35;;;22.90;99.90;;;;;;5040728;28;20066;-76
2023/06/18 08:52:10;;;;;;;15.32;10.85;;;23.10;99.90;;;;;;5024327;28;20025;-76
2023/06/18 08:54:37;;;;;;;15.63;10.32;;;23.20;99.90;;;;;;5039247;28;20017;-76
2023/06/18 08:57:10;;;;;;;15.43;10.43;;;23.30;99.90;;;;;;5110259;27;20056;-75
2023/06/18 08:59:37;;;;;;;14.68;10.23;;;23.40;99.90;;;;;;5040646;28;20025;-76
2023/06/18 09:02:05;;;;;;;15.40;10.30;;;23.50;99.90;;;;;;4996655;28;20021;-76
2023/06/18 09:04:33;;;;;;;16.05;10.60;;;23.70;99.90;;;;;;5043341;28;20033;-76
2023/06/18 09:07:00;;;;;;;15.02;9.68;;;23.70;99.90;;;;;;5038051;27;20029;-76
2023/06/18 09:09:27;;;;;;;13.75;9.05;;;23.70;99.90;;;;;;5040736;28;20313;-76
2023/06/18 09:11:53;;;;;;;15.77;10.27;;;23.90;99.90;;;;;;5144025;27;20088;-76
2023/06/18 09:14:18;;;;;;;14.15;8.70;;;24.10;99.90;;;;;;5126893;27;20026;-75
2023/06/18 09:16:44;;;;;;;14.32;9.23;;;23.80;99.90;;;;;;5004230;28;20226;-76
2023/06/18 09:19:10;;;;;;;13.90;9.30;;;24.40;99.90;;;;;;5042173;27;20033;-76
2023/06/18 09:21:43;;;;;;;14.73;8.85;;;24.50;99.90;;;;;;5039862;28;20021;-76
2023/06/18 09:24:18;;;;;;;13.00;8.25;;;24.70;99.90;;;;;;5063924;27;20021;-75
2023/06/18 09:26:44;;;;;;;12.30;7.22;;;24.80;99.90;;;;;;5022571;28;20034;-76
2023/06/18 09:29:11;;;;;;;14.60;8.15;;;24.80;99.90;;;;;;5032552;28;20033;-76
2023/06/18 09:31:41;;;;;;;15.23;8.95;;;24.90;99.90;;;;;;5023781;28;20014;-76
2023/06/18 09:34:20;;;;;;;12.98;8.20;;;24.90;99.90;;;;;;5039377;28;20212;-76
2023/06/18 09:36:49;;;;;;;14.48;7.65;;;25.10;99.90;;;;;;5045935;28;20021;-76
2023/06/18 09:39:18;;;;;;;12.40;7.65;;;25.10;99.90;;;;;;5126199;27;20271;-76
2023/06/18 09:41:45;;;;;;;13.82;8.07;;;25.10;99.90;;;;;;5040046;28;20029;-76
2023/06/18 09:44:13;;;;;;;11.63;7.40;;;25.20;99.90;;;;;;5039255;28;20017;-75
2023/06/18 09:46:58;;;;;;;11.98;7.20;;;25.30;99.90;;;;;;5038961;28;20021;-76
2023/06/18 09:49:26;;;;;;;14.60;7.68;;;25.40;99.90;;;;;;5067830;27;20013;-76
2023/06/18 09:51:54;;;;;;;13.18;6.85;;;25.50;99.90;;;;;;5023269;28;20026;-76
2023/06/18 09:54:20;;;;;;;11.40;6.95;;;25.60;99.90;;;;;;5039611;28;20034;-76
2023/06/18 09:57:00;;;;;;;11.55;6.70;;;25.60;99.90;;;;;;5041074;28;20036;-76
2023/06/18 09:59:26;;;;;;;12.60;7.13;;;25.80;99.90;;;;;;5053580;28;20025;-76
2023/06/18 10:01:53;;;;;;;12.88;6.82;;;25.70;99.90;;;;;;5097397;27;20029;-76
2023/06/18 10:04:18;;;;;;;11.80;6.93;;;26.10;99.90;;;;;;5143068;27;20040;-76
2023/06/18 10:06:59;;;;;;;12.45;6.32;;;26.30;99.90;;;;;;5038836;28;20029;-76
2023/06/18 10:09:39;;;;;;;10.85;5.63;;;26.40;99.90;;;;;;5023070;28;20275;-76
2023/06/18 10:12:06;;;;;;;10.10;5.90;;;26.50;99.90;;;;;;5019496;27;20034;-76
2023/06/18 10:14:33;;;;;;;10.20;5.57;;;26.50;99.90;;;;;;5046862;28;20056;-76
2023/06/18 10:17:07;;;;;;;10.90;5.93;;;26.60;99.90;;;;;;5038553;28;20098;-76
2023/06/18 10:19:46;;;;;;;11.48;6.18;;;26.60;99.90;;;;;;5038361;28;20229;-76
2023/06/18 10:22:14;;;;;;;10.00;5.78;;;26.60;99.90;;;;;;5023103;28;20205;-76
2023/06/18 10:24:56;;;;;;;10.73;5.90;;;26.50;99.90;;;;;;5023043;28;20050;-76
2023/06/18 10:27:23;;;;;;;10.77;6.13;;;26.70;99.90;;;;;;5029793;28;20052;-76
2023/06/18 10:29:49;;;;;;;12.82;6.35;;;26.80;99.90;;;;;;5034885;28;20047;-76
2023/06/18 10:32:15;;;;;;;10.95;5.97;;;26.70;99.90;;;;;;5027273;28;20017;-76
2023/06/18 10:34:43;;;;;;;13.85;5.90;;;26.70;99.90;;;;;;5039224;28;20098;-76
2023/06/18 10:37:09;;;;;;;9.77;5.43;;;26.60;99.90;;;;;;5037137;28;20061;-76
2023/06/18 10:39:35;;;;;;;10.77;6.18;;;26.60;99.90;;;;;;5039120;28;20131;-76
2023/06/18 10:42:12;;;;;;;11.10;5.93;;;26.60;99.90;;;;;;5039277;28;20026;-76
2023/06/18 10:44:47;;;;;;;10.02;5.40;;;26.70;99.90;;;;;;5045399;28;20017;-77
2023/06/18 10:47:21;;;;;;;10.35;6.00;;;26.80;99.90;;;;;;5037401;28;20117;-76
2023/06/18 10:50:02;;;;;;;11.02;5.95;;;26.90;99.90;;;;;;5021365;28;20017;-76
2023/06/18 10:52:38;;;;;;;10.93;6.10;;;26.90;99.90;;;;;;5039086;28;20025;-76
2023/06/18 10:55:12;;;;;;;13.02;6.03;;;27.10;99.90;;;;;;5047653;27;20021;-76
2023/06/18 10:57:44;;;;;;;10.10;6.10;;;27.30;99.90;;;;;;5029847;28;20207;-77
2023/06/18 11:00:15;;;;;;;10.07;5.70;;;27.20;99.90;;;;;;5003986;28;20332;-76
2023/06/18 11:02:41;;;;;;;10.30;5.95;;;27.20;99.90;;;;;;5107123;27;20271;-76
2023/06/18 11:05:07;;;;;;;10.38;6.05;;;27.30;99.90;;;;;;5033216;28;20088;-77
2023/06/18 11:07:33;;;;;;;11.90;6.25;;;27.40;99.90;;;;;;5022621;28;20246;-77
2023/06/18 11:10:04;;;;;;;11.35;6.32;;;27.20;99.90;;;;;;5013230;28;20088;-76
2023/06/18 11:12:37;;;;;;;10.82;6.25;;;27.30;99.90;;;;;;5114786;27;20017;-76
2023/06/18 11:15:15;;;;;;;;;;;27.40;99.90;;;;;;5037399;28;20286;-77
2023/06/18 11:17:53;;;;;;;10.70;5.95;;;27.50;99.90;;;;;;5038053;28;20084;-77
2023/06/18 11:20:20;;;;;;;10.45;6.03;;;27.40;99.90;;;;;;5112492;27;20043;-76
2023/06/18 11:22:47;;;;;;;10.95;6.25;;;;;;;;;;5033775;28;20026;-76
2023/06/18 11:25:14;;;;;;;11.63;5.88;;;27.70;99.90;;;;;;5026577;28;20116;-77
2023/06/18 11:27:41;;;;;;;10.55;6.03;;;27.70;99.90;;;;;;5085492;28;20290;-77
2023/06/18 11:30:12;;;;;;;10.43;5.95;;;27.70;99.90;;;;;;5113468;28;20018;-76
2023/06/18 11:32:40;;;;;;;11.38;5.95;;;27.70;99.90;;;;;;5049001;28;20025;-77
2023/06/18 11:35:10;;;;;;;10.45;6.22;;;27.70;99.90;;;;;;5010786;28;20025;-76
2023/06/18 11:37:38;;;;;;;10.32;5.93;;;27.70;99.90;;;;;;5039480;28;20113;-77
2023/06/18 11:40:06;;;;;;;9.73;5.93;;;27.80;99.90;;;;;;5038297;28;20035;-77
2023/06/18 11:42:33;;;;;;;11.35;6.10;;;27.50;99.90;;;;;;5038492;28;20327;-77
2023/06/18 11:45:02;;;;;;;10.40;5.70;;;27.70;99.90;;;;;;5018483;28;20030;-77
2023/06/18 11:47:29;;;;;;;9.85;5.70;;;27.70;99.90;;;;;;5022317;28;20029;-77
2023/06/18 11:49:56;;;;;;;9.55;5.45;;;27.70;99.90;;;;;;5089771;28;20047;-77
2023/06/18 11:52:24;;;;;;;10.75;5.80;;;27.70;99.90;;;;;;5018975;28;20026;-76
2023/06/18 11:54:51;;;;;;;9.85;5.72;;;27.70;99.90;;;;;;5131269;27;20042;-77
2023/06/18 11:57:18;;;;;;;11.30;5.57;;;27.70;99.90;;;;;;5038694;28;20036;-76
2023/06/18 11:59:46;;;;;;;9.82;5.50;;;27.80;99.90;;;;;;5021037;28;20056;-76
2023/06/18 12:02:26;;;;;;;11.65;5.90;;;28.00;99.90;;;;;;5037975;28;20057;-76
2023/06/18 12:04:52;;;;;;;10.27;5.40;;;28.10;99.90;;;;;;5025035;28;20081;-76
2023/06/18 12:07:22;;;;;;;10.15;5.63;;;28.20;99.90;;;;;;5024602;28;20044;-76
2023/06/18 12:09:55;;;;;;;9.82;5.35;;;28.20;99.90;;;;;;5025047;28;20026;-76
2023/06/18 12:12:42;;;;;;;14.48;5.55;;;28.20;99.90;;;;;;5041691;28;20108;-76
2023/06/18 12:15:39;;;;;;;14.23;5.78;;;28.30;99.90;;;;;;5040974;28;20033;-76
2023/06/18 12:18:08;;;;;;;9.55;5.50;;;28.40;99.90;;;;;;5041260;28;20041;-76
2023/06/18 12:20:35;;;;;;;10.23;5.10;;;28.50;99.90;;;;;;5018317;28;20018;-76
2023/06/18 12:23:02;;;;;;;11.90;5.82;;;28.50;99.90;;;;;;5041188;28;20263;-76
2023/06/18 12:25:30;;;;;;;9.52;5.60;;;28.60;99.90;;;;;;5022147;28;20036;-76
2023/06/18 12:27:57;;;;;;;10.20;5.68;;;28.60;99.90;;;;;;5023143;28;20022;-76
2023/06/18 12:30:28;;;;;;;10.95;5.20;;;28.70;99.90;;;;;;5039952;28;20036;-76
2023/06/18 12:33:11;;;;;;;10.13;5.55;;;28.80;99.90;;;;;;5038335;28;20171;-76